Time;durP1;ratioP1;P1;durP2;ratioP2;P2;SDS_P1;SDS_P2;PMS_P1;PMS_P2;Temp;Humidity;BMP_temperature;BMP_pressure;BME280_temperature;BME280_humidity;BME280_pressure;Samples;Min_cycle;Max_cycle;Signal;HPM_P1;HPM_P2
2022/04/06 00:00:48;;;;;;;2.30;1.77;;;9.90;99.90;;;;;;5066621;28;20232;-86
2022/04/06 00:03:14;;;;;;;6.13;1.90;;;9.90;99.90;;;;;;5082971;28;20244;-88
2022/04/06 00:05:41;;;;;;;1.67;1.53;;;9.90;99.90;;;;;;5083934;28;21010;-88
2022/04/06 00:08:07;;;;;;;9.37;2.10;;;9.90;99.90;;;;;;5068255;28;20583;-89
2022/04/06 00:10:33;;;;;;;5.63;2.67;;;9.90;99.90;;;;;;5058756;28;20766;-88
2022/04/06 00:13:00;;;;;;;6.77;2.13;;;9.90;99.90;;;;;;5049648;28;20232;-88
2022/04/06 00:15:26;;;;;;;2.27;1.47;;;9.90;99.90;;;;;;5050424;28;20221;-89
2022/04/06 00:17:53;;;;;;;2.67;1.33;;;9.90;99.90;;;;;;5050089;28;20217;-88
2022/04/06 00:20:19;;;;;;;4.17;1.80;;;10.00;99.90;;;;;;5050834;28;20217;-87
2022/04/06 00:22:45;;;;;;;3.50;2.20;;;10.00;99.90;;;;;;5050230;28;20223;-89
2022/04/06 00:25:11;;;;;;;1.73;1.57;;;10.00;99.90;;;;;;5049927;28;20233;-88
2022/04/06 00:27:37;;;;;;;6.80;1.60;;;10.00;99.90;;;;;;5083778;28;20225;-88
2022/04/06 00:30:04;;;;;;;8.87;2.60;;;10.00;99.90;;;;;;5049644;28;20217;-88
2022/04/06 00:32:30;;;;;;;2.37;1.90;;;10.00;99.90;;;;;;5066346;28;20185;-88
2022/04/06 00:37:40;;;;;;;2.40;2.30;;;10.00;99.90;;;;;;5080284;28;20220;-88
2022/04/06 00:40:08;;;;;;;7.47;1.67;;;10.00;99.90;;;;;;5081823;28;20217;-88
2022/04/06 00:42:34;;;;;;;6.97;1.43;;;10.10;99.90;;;;;;5064343;28;20350;-88
2022/04/06 00:45:00;;;;;;;1.53;1.00;;;10.10;99.90;;;;;;5081849;28;20289;-87
2022/04/06 00:47:26;;;;;;;5.13;1.33;;;10.00;99.90;;;;;;5065626;28;20189;-88
2022/04/06 00:49:52;;;;;;;1.93;1.83;;;10.10;99.90;;;;;;5049057;28;20197;-88
2022/04/06 00:52:20;;;;;;;3.27;1.33;;;10.10;99.90;;;;;;5048569;28;20585;-87
2022/04/06 00:54:47;;;;;;;9.10;1.53;;;10.10;99.90;;;;;;5048586;28;20231;-88
2022/04/06 00:57:14;;;;;;;3.33;1.27;;;10.10;99.90;;;;;;5067507;28;20221;-88
2022/04/06 00:59:41;;;;;;;4.53;1.07;;;10.10;99.90;;;;;;5067164;28;20287;-87
2022/04/06 01:02:07;;;;;;;4.93;2.27;;;10.10;99.90;;;;;;5066350;28;20245;-88
2022/04/06 01:04:32;;;;;;;1.07;1.07;;;10.10;99.90;;;;;;5065791;28;20697;-89
2022/04/06 01:06:58;;;;;;;5.00;2.40;;;10.10;99.90;;;;;;5080937;28;20302;-87
2022/04/06 01:09:25;;;;;;;4.07;1.50;;;10.10;99.90;;;;;;5064753;28;20232;-88
2022/04/06 01:11:52;;;;;;;0.80;0.80;;;10.20;99.90;;;;;;5082359;28;20217;-87
2022/04/06 01:14:19;;;;;;;16.80;0.93;;;10.20;99.90;;;;;;5058307;28;20201;-87
2022/04/06 01:17:14;;;;;;;3.33;0.90;;;10.30;99.90;;;;;;5048859;28;20225;-88
2022/04/06 01:19:43;;;;;;;1.20;1.10;;;10.40;99.90;;;;;;5043880;28;20221;-88
2022/04/06 01:22:11;;;;;;;2.47;1.47;;;10.50;99.90;;;;;;5048816;28;20221;-88
2022/04/06 01:24:38;;;;;;;2.67;1.53;;;10.50;99.90;;;;;;5065435;28;20229;-87
2022/04/06 01:27:05;;;;;;;4.90;1.03;;;10.50;99.90;;;;;;5081905;28;20254;-87
2022/04/06 01:29:31;;;;;;;3.40;1.07;;;10.50;99.90;;;;;;5082501;28;20192;-88
2022/04/06 01:32:07;;;;;;;1.63;1.47;;;10.50;99.90;;;;;;5066436;28;20197;-87
2022/04/06 01:34:33;;;;;;;1.47;0.90;;;10.50;99.90;;;;;;5066151;28;20303;-87
2022/04/06 01:36:59;;;;;;;1.87;1.20;;;10.50;99.90;;;;;;5065471;28;20227;-88
2022/04/06 01:39:25;;;;;;;3.30;1.23;;;10.50;99.90;;;;;;5065223;28;20229;-88
2022/04/06 01:41:50;;;;;;;4.23;1.57;;;10.40;99.90;;;;;;5048630;28;20765;-87
2022/04/06 01:44:16;;;;;;;0.90;0.90;;;10.40;99.90;;;;;;5048637;28;20350;-88
2022/04/06 01:46:42;;;;;;;1.90;1.47;;;10.40;99.90;;;;;;5082156;28;20221;-87
2022/04/06 01:54:35;;;;;;;2.13;0.93;;;10.30;99.90;;;;;;5079809;28;20224;-88
2022/04/06 01:57:01;;;;;;;2.00;1.30;;;10.30;99.90;;;;;;5082100;28;20274;-88
2022/04/06 01:59:28;;;;;;;0.77;0.77;;;10.30;99.90;;;;;;5047956;28;20677;-87
2022/04/06 02:01:54;;;;;;;10.40;1.50;;;10.30;99.90;;;;;;5048444;28;20233;-87
2022/04/06 02:04:21;;;;;;;3.67;1.00;;;10.30;99.90;;;;;;5082287;28;20240;-87
2022/04/06 02:06:46;;;;;;;5.20;0.87;;;10.30;99.90;;;;;;5046542;28;20221;-89
2022/04/06 02:09:13;;;;;;;1.17;0.97;;;10.30;99.90;;;;;;5045084;28;20232;-87
2022/04/06 02:11:39;;;;;;;1.10;0.77;;;10.30;99.90;;;;;;5063997;28;26255;-88
2022/04/06 02:14:05;;;;;;;1.90;0.73;;;10.30;99.90;;;;;;5047712;28;20192;-87
2022/04/06 02:16:32;;;;;;;1.60;1.50;;;10.30;99.90;;;;;;5064660;28;20251;-88
2022/04/06 02:18:59;;;;;;;1.73;0.80;;;10.30;99.90;;;;;;5065694;28;20227;-87
2022/04/06 02:21:24;;;;;;;0.50;0.50;;;10.30;99.90;;;;;;5081403;28;20251;-87
2022/04/06 02:23:50;;;;;;;0.50;0.50;;;10.30;99.90;;;;;;5065903;28;20233;-87
2022/04/06 02:26:16;;;;;;;1.03;0.77;;;10.20;99.90;;;;;;5064603;28;20700;-88
2022/04/06 02:28:42;;;;;;;1.47;0.87;;;10.20;99.90;;;;;;5048109;28;20760;-88
2022/04/06 02:31:08;;;;;;;1.80;1.53;;;10.20;99.90;;;;;;5065619;28;20274;-87
2022/04/06 02:33:33;;;;;;;3.40;0.73;;;10.20;99.90;;;;;;5063928;28;21010;-87
2022/04/06 02:35:59;;;;;;;1.13;0.77;;;10.20;99.90;;;;;;5065179;28;20217;-87
2022/04/06 02:38:25;;;;;;;2.03;1.00;;;10.10;99.90;;;;;;5064487;28;20281;-88
2022/04/06 02:40:50;;;;;;;0.73;0.73;;;10.10;99.90;;;;;;5064288;28;21185;-85
2022/04/06 02:43:16;;;;;;;7.60;1.60;;;10.10;99.90;;;;;;5047654;28;20272;-84
2022/04/06 02:45:42;;;;;;;0.90;0.63;;;10.10;99.90;;;;;;5046610;28;20240;-85
2022/04/06 02:48:08;;;;;;;2.40;1.10;;;10.00;99.90;;;;;;5045301;28;20228;-85
2022/04/06 02:50:33;;;;;;;0.70;0.70;;;10.00;99.90;;;;;;5063251;28;20258;-85
2022/04/06 02:52:59;;;;;;;2.33;2.07;;;10.10;99.90;;;;;;5064837;28;20189;-86
2022/04/06 02:55:25;;;;;;;4.93;1.77;;;10.00;99.90;;;;;;5081235;28;20677;-87
2022/04/06 02:57:50;;;;;;;0.70;0.70;;;10.00;99.90;;;;;;5064469;28;20253;-87
2022/04/06 03:00:18;;;;;;;3.70;1.30;;;10.00;99.90;;;;;;5046961;28;20305;-86
2022/04/06 03:02:45;;;;;;;1.23;1.13;;;10.00;99.90;;;;;;5065324;28;20220;-86
2022/04/06 03:05:11;;;;;;;0.67;0.67;;;9.90;99.90;;;;;;5047003;28;20518;-85
2022/04/06 03:07:36;;;;;;;6.60;2.07;;;9.90;99.90;;;;;;5047275;28;20707;-87
2022/04/06 03:10:02;;;;;;;2.97;1.47;;;9.90;99.90;;;;;;5047564;28;20227;-87
2022/04/06 03:12:28;;;;;;;1.93;1.30;;;9.90;99.90;;;;;;5037402;28;20221;-87
2022/04/06 03:14:54;;;;;;;6.30;1.67;;;9.90;99.90;;;;;;5063896;28;20252;-86
2022/04/06 03:17:20;;;;;;;4.83;1.53;;;9.90;99.90;;;;;;5047175;28;20362;-86
2022/04/06 03:19:45;;;;;;;10.63;3.53;;;9.90;99.90;;;;;;5048121;28;20709;-88
2022/04/06 03:22:17;;;;;;;5.30;1.93;;;9.90;99.90;;;;;;5080479;28;20221;-88
2022/04/06 03:24:44;;;;;;;5.17;2.30;;;9.90;99.90;;;;;;5079731;28;20233;-88
2022/04/06 03:27:10;;;;;;;0.67;0.57;;;9.90;99.90;;;;;;5080196;28;20229;-87
2022/04/06 03:29:36;;;;;;;5.80;1.57;;;9.90;99.90;;;;;;5064272;28;20684;-88
2022/04/06 03:32:01;;;;;;;1.03;0.90;;;9.80;99.90;;;;;;5047278;28;20197;-88
2022/04/06 03:34:28;;;;;;;4.17;1.60;;;9.80;99.90;;;;;;5079971;28;20221;-88
2022/04/06 03:36:54;;;;;;;0.93;0.93;;;9.80;99.90;;;;;;5079848;28;20236;-88
2022/04/06 03:39:19;;;;;;;4.17;1.83;;;9.80;99.90;;;;;;5046544;28;20229;-88
2022/04/06 03:41:45;;;;;;;3.53;1.93;;;9.80;99.90;;;;;;5063467;28;20626;-87
2022/04/06 03:44:11;;;;;;;2.50;1.30;;;9.80;99.90;;;;;;5081424;28;20225;-88
2022/04/06 03:46:37;;;;;;;4.53;1.47;;;9.70;99.90;;;;;;5047102;28;20221;-88
2022/04/06 03:49:03;;;;;;;2.63;1.27;;;9.70;99.90;;;;;;5046612;28;20220;-88
2022/04/06 03:51:29;;;;;;;3.03;1.53;;;9.60;99.90;;;;;;5046650;28;20239;-87
2022/04/06 03:53:54;;;;;;;4.97;1.73;;;9.60;99.90;;;;;;5064255;28;20689;-88
2022/04/06 03:56:20;;;;;;;3.50;1.13;;;9.60;99.90;;;;;;5063143;28;20588;-87
2022/04/06 03:58:46;;;;;;;2.70;1.30;;;9.60;99.90;;;;;;5043886;28;20996;-86
2022/04/06 04:01:12;;;;;;;11.20;1.30;;;9.50;99.90;;;;;;5068226;28;20406;-86
2022/04/06 04:03:37;;;;;;;7.80;1.20;;;9.60;99.90;;;;;;5063314;28;21054;-86
2022/04/06 04:06:03;;;;;;;2.07;0.83;;;9.60;99.90;;;;;;5063678;28;20232;-88
2022/04/06 04:08:29;;;;;;;1.60;1.50;;;9.50;99.90;;;;;;5053621;28;20178;-87
2022/04/06 04:10:54;;;;;;;2.03;1.00;;;9.50;99.90;;;;;;5062259;28;20190;-87
2022/04/06 04:13:20;;;;;;;4.87;2.17;;;9.40;99.90;;;;;;5045555;28;20229;-86
2022/04/06 04:15:46;;;;;;;6.20;1.57;;;9.40;99.90;;;;;;5066318;28;20229;-87
2022/04/06 04:18:11;;;;;;;2.30;1.47;;;9.40;99.90;;;;;;5049611;28;20565;-87
2022/04/06 04:20:40;;;;;;;1.37;1.27;;;9.40;99.90;;;;;;5050288;28;20481;-87
2022/04/06 04:23:05;;;;;;;4.13;2.10;;;9.40;99.90;;;;;;5066537;28;20665;-87
2022/04/06 04:25:31;;;;;;;4.27;1.27;;;9.40;99.90;;;;;;5066855;28;20312;-88
2022/04/06 04:27:57;;;;;;;2.07;0.97;;;9.40;99.90;;;;;;5049107;28;21017;-86
2022/04/06 04:30:23;;;;;;;4.13;2.53;;;9.30;99.90;;;;;;5064323;28;20217;-88
2022/04/06 04:32:48;;;;;;;1.97;1.53;;;9.30;99.90;;;;;;5066555;28;20247;-87
2022/04/06 04:35:14;;;;;;;1.10;0.80;;;9.40;99.90;;;;;;5049970;28;20657;-87
2022/04/06 04:37:40;;;;;;;9.83;1.67;;;9.30;99.90;;;;;;5065803;28;20209;-87
2022/04/06 04:40:06;;;;;;;8.90;1.30;;;9.40;99.90;;;;;;5049471;28;20221;-87
2022/04/06 04:42:32;;;;;;;11.87;1.80;;;9.40;99.90;;;;;;5066695;28;20213;-84
2022/04/06 04:44:59;;;;;;;20.23;2.10;;;9.40;99.90;;;;;;5064371;28;20252;-86
2022/04/06 04:47:24;;;;;;;0.70;0.70;;;9.40;99.90;;;;;;5055787;28;20641;-84
2022/04/06 04:49:50;;;;;;;5.10;1.43;;;9.40;99.90;;;;;;5029845;28;20186;-87
2022/04/06 04:52:16;;;;;;;1.70;1.20;;;9.40;99.90;;;;;;5065474;28;20236;-87
2022/04/06 04:54:42;;;;;;;17.63;1.70;;;9.30;99.90;;;;;;5065190;28;20224;-86
2022/04/06 04:57:08;;;;;;;2.03;1.90;;;9.40;99.90;;;;;;5047805;28;20791;-86
2022/04/06 04:59:33;;;;;;;0.80;0.80;;;9.40;99.90;;;;;;5048475;28;20186;-88
2022/04/06 05:01:59;;;;;;;7.80;1.80;;;9.30;99.90;;;;;;5048204;28;20303;-86
2022/04/06 05:04:25;;;;;;;6.07;1.93;;;9.30;99.90;;;;;;5081869;28;20724;-85
2022/04/06 05:06:50;;;;;;;3.60;1.77;;;9.30;99.90;;;;;;5081775;28;20225;-88
2022/04/06 05:09:17;;;;;;;8.37;2.43;;;9.30;99.90;;;;;;5064035;28;20625;-86
2022/04/06 05:11:43;;;;;;;5.60;1.43;;;9.30;99.90;;;;;;5064335;28;20215;-86
2022/04/06 05:14:09;;;;;;;8.97;3.07;;;9.30;99.90;;;;;;5040172;28;20190;-85
2022/04/06 05:16:35;;;;;;;1.83;0.83;;;9.30;99.90;;;;;;5065051;28;20228;-87
2022/04/06 05:19:01;;;;;;;1.60;1.50;;;9.30;99.90;;;;;;5064192;28;20209;-85
2022/04/06 05:21:27;;;;;;;8.03;1.90;;;9.30;99.90;;;;;;5047006;28;20221;-84
2022/04/06 05:23:53;;;;;;;1.23;1.13;;;9.30;99.90;;;;;;5064666;28;20216;-86
2022/04/06 05:26:19;;;;;;;3.43;2.40;;;9.30;99.90;;;;;;5047236;28;21014;-87
2022/04/06 05:28:44;;;;;;;6.57;2.40;;;9.30;99.90;;;;;;5045965;28;20292;-86
2022/04/06 05:31:10;;;;;;;3.30;1.57;;;9.30;99.90;;;;;;5046696;28;20316;-86
2022/04/06 05:33:36;;;;;;;5.27;2.13;;;9.30;99.90;;;;;;5063190;28;20417;-86
2022/04/06 05:36:02;;;;;;;5.20;1.40;;;9.30;99.90;;;;;;5045577;28;20232;-86
2022/04/06 05:38:29;;;;;;;14.67;2.43;;;9.30;99.90;;;;;;5045552;28;20231;-87
2022/04/06 05:40:55;;;;;;;2.53;2.27;;;9.30;99.90;;;;;;5053143;28;20193;-86
2022/04/06 05:43:20;;;;;;;6.23;1.40;;;9.30;99.90;;;;;;5046631;28;20774;-86
2022/04/06 05:45:46;;;;;;;10.07;3.43;;;9.40;99.90;;;;;;5047423;28;20248;-87
2022/04/06 05:48:12;;;;;;;0.70;0.70;;;9.40;99.90;;;;;;5081112;28;20266;-87
2022/04/06 05:50:38;;;;;;;6.00;1.77;;;9.40;99.90;;;;;;5046597;28;20185;-86
2022/04/06 05:53:04;;;;;;;1.53;0.87;;;9.40;99.90;;;;;;5048222;28;20189;-86
2022/04/06 05:55:30;;;;;;;12.90;1.87;;;9.30;99.90;;;;;;5046211;28;20237;-87
2022/04/06 05:57:56;;;;;;;1.47;1.37;;;9.40;99.90;;;;;;5063385;28;20246;-86
2022/04/06 06:00:21;;;;;;;1.60;1.27;;;9.30;99.90;;;;;;5079844;28;20278;-85
2022/04/06 06:02:47;;;;;;;0.70;0.57;;;9.40;99.90;;;;;;5046364;28;20557;-87
2022/04/06 06:05:13;;;;;;;2.20;1.57;;;9.40;99.90;;;;;;5063226;28;20296;-86
2022/04/06 06:07:39;;;;;;;10.30;2.20;;;9.40;99.90;;;;;;5061975;28;20220;-84
2022/04/06 06:10:05;;;;;;;1.37;1.27;;;9.40;99.90;;;;;;5042870;28;20692;-85
2022/04/06 06:12:31;;;;;;;0.87;0.83;;;9.40;99.90;;;;;;5060784;28;20213;-87
2022/04/06 06:14:57;;;;;;;1.40;1.13;;;9.40;99.90;;;;;;5045001;28;20263;-84
2022/04/06 06:17:23;;;;;;;3.07;1.43;;;9.50;99.90;;;;;;5061865;28;20213;-89
2022/04/06 06:19:49;;;;;;;21.20;1.80;;;9.50;99.90;;;;;;5065121;28;20217;-89
2022/04/06 06:22:14;;;;;;;0.60;0.60;;;9.50;99.90;;;;;;5063698;28;20217;-89
2022/04/06 06:24:40;;;;;;;2.37;1.30;;;9.50;99.90;;;;;;5063967;28;20228;-88
2022/04/06 06:27:06;;;;;;;3.17;1.43;;;9.50;99.90;;;;;;5047073;28;20232;-87
2022/04/06 06:29:33;;;;;;;1.50;1.10;;;9.50;99.90;;;;;;5046302;28;20312;-85
2022/04/06 06:31:59;;;;;;;1.40;1.13;;;9.60;99.90;;;;;;5020588;28;20185;-86
2022/04/06 06:34:24;;;;;;;5.80;1.17;;;9.60;99.90;;;;;;5060703;28;20684;-85
2022/04/06 06:36:50;;;;;;;1.47;1.17;;;9.50;99.90;;;;;;5043354;28;20572;-86
2022/04/06 06:39:16;;;;;;;10.73;2.93;;;9.50;99.90;;;;;;5043102;28;21436;-85
2022/04/06 06:41:43;;;;;;;3.00;1.70;;;9.50;99.90;;;;;;5079016;28;21099;-88
2022/04/06 06:44:09;;;;;;;2.90;0.90;;;9.50;99.90;;;;;;5061575;28;20209;-87
2022/04/06 06:46:35;;;;;;;3.53;0.83;;;9.50;99.90;;;;;;5061176;28;20228;-90
2022/04/06 06:49:04;;;;;;;4.53;1.03;;;9.50;99.90;;;;;;5061753;28;20221;-89
2022/04/06 06:51:30;;;;;;;2.43;1.37;;;9.50;99.90;;;;;;5064785;28;20252;-91
2022/04/06 06:53:57;;;;;;;4.40;1.13;;;9.50;99.90;;;;;;5048192;28;20227;-87
2022/04/06 06:56:24;;;;;;;3.03;1.30;;;9.60;99.90;;;;;;5043875;28;20272;-88
2022/04/06 06:58:50;;;;;;;16.63;0.97;;;9.60;99.90;;;;;;5061306;28;20177;-83
2022/04/06 07:01:15;;;;;;;5.60;1.73;;;9.60;99.90;;;;;;5051188;28;20681;-82
2022/04/06 07:03:41;;;;;;;1.73;1.57;;;9.50;99.90;;;;;;5042649;28;20267;-83
2022/04/06 07:06:07;;;;;;;2.17;1.60;;;9.60;99.90;;;;;;5058333;28;20248;-82
2022/04/06 07:08:33;;;;;;;0.93;0.63;;;9.50;99.90;;;;;;5061122;28;20201;-83
2022/04/06 07:10:59;;;;;;;2.10;1.93;;;9.60;99.90;;;;;;5075920;28;20208;-83
2022/04/06 07:13:25;;;;;;;1.10;1.07;;;9.60;99.90;;;;;;5042153;28;20328;-82
2022/04/06 07:15:51;;;;;;;2.00;0.70;;;9.60;99.90;;;;;;5075465;28;20225;-82
2022/04/06 07:18:18;;;;;;;4.10;1.23;;;9.60;99.90;;;;;;5059689;28;20221;-83
2022/04/06 07:20:44;;;;;;;3.13;1.33;;;9.60;99.90;;;;;;5058860;28;20219;-82
2022/04/06 07:23:10;;;;;;;1.10;1.00;;;9.70;99.90;;;;;;5060626;28;20231;-82
2022/04/06 07:25:36;;;;;;;1.90;1.37;;;9.70;99.90;;;;;;5058449;28;20303;-83
2022/04/06 07:28:03;;;;;;;1.50;0.93;;;9.70;99.90;;;;;;5041781;28;20347;-83
2022/04/06 07:30:29;;;;;;;4.03;1.37;;;9.70;99.90;;;;;;5058575;28;20213;-83
2022/04/06 07:32:56;;;;;;;3.37;1.00;;;9.70;99.90;;;;;;5041616;28;20234;-84
2022/04/06 07:35:22;;;;;;;1.37;1.27;;;9.70;99.90;;;;;;5058508;28;20193;-84
2022/04/06 07:37:50;;;;;;;5.40;1.70;;;9.70;99.90;;;;;;5041799;28;20193;-84
2022/04/06 07:40:18;;;;;;;1.27;0.50;;;9.70;99.90;;;;;;5060125;28;21142;-84
2022/04/06 07:42:46;;;;;;;0.93;0.90;;;9.60;99.90;;;;;;5075235;28;20213;-84
2022/04/06 07:45:14;;;;;;;9.27;0.97;;;9.60;99.90;;;;;;5042005;28;20565;-84
2022/04/06 07:47:41;;;;;;;3.13;1.57;;;9.60;99.90;;;;;;5042208;28;20239;-84
2022/04/06 07:50:08;;;;;;;0.70;0.70;;;9.70;99.90;;;;;;5076872;28;20409;-82
2022/04/06 07:52:35;;;;;;;3.10;1.93;;;9.70;99.90;;;;;;5063673;28;20225;-82
2022/04/06 07:55:01;;;;;;;9.87;1.10;;;9.80;99.90;;;;;;5062557;28;20259;-82
2022/04/06 07:57:28;;;;;;;1.20;0.73;;;9.80;99.90;;;;;;5045379;28;20224;-83
2022/04/06 07:59:54;;;;;;;4.23;1.90;;;10.00;99.90;;;;;;5045745;28;20227;-83
2022/04/06 08:02:21;;;;;;;3.10;1.03;;;10.10;99.90;;;;;;5042050;28;20267;-83
2022/04/06 08:04:46;;;;;;;1.60;1.50;;;10.10;99.90;;;;;;5042973;28;20309;-83
2022/04/06 08:07:12;;;;;;;3.80;2.53;;;10.20;99.90;;;;;;5042087;28;20224;-83
2022/04/06 08:09:38;;;;;;;2.57;0.90;;;10.20;99.90;;;;;;5026088;28;20218;-83
2022/04/06 08:12:05;;;;;;;3.30;0.80;;;10.20;99.90;;;;;;5042171;28;20736;-82
2022/04/06 08:14:30;;;;;;;9.53;1.87;;;10.40;99.90;;;;;;5042205;28;20193;-83
2022/04/06 08:16:57;;;;;;;0.50;0.50;;;10.50;99.90;;;;;;5042540;28;20198;-83
2022/04/06 08:19:24;;;;;;;14.43;4.00;;;10.60;99.90;;;;;;5042574;28;20309;-84
2022/04/06 08:21:50;;;;;;;1.50;0.67;;;10.70;99.90;;;;;;5025957;28;20336;-85
2022/04/06 08:24:16;;;;;;;4.50;1.10;;;10.70;99.90;;;;;;5042030;28;20237;-85
2022/04/06 08:26:42;;;;;;;5.37;2.20;;;10.80;99.90;;;;;;5059389;28;20248;-85
2022/04/06 08:29:08;;;;;;;2.30;1.07;;;10.80;99.90;;;;;;5042713;28;20634;-85
2022/04/06 08:31:34;;;;;;;3.30;0.93;;;10.90;99.90;;;;;;5042478;28;20258;-85
2022/04/06 08:34:00;;;;;;;2.10;1.33;;;10.80;99.90;;;;;;5042557;28;20307;-85
2022/04/06 08:36:26;;;;;;;3.40;1.27;;;10.70;99.90;;;;;;5041705;28;20979;-85
2022/04/06 08:38:51;;;;;;;1.87;1.20;;;10.70;99.90;;;;;;5042659;28;20221;-85
2022/04/06 08:41:20;;;;;;;0.80;0.57;;;10.90;99.90;;;;;;5043988;28;20729;-85
2022/04/06 08:43:46;;;;;;;2.67;1.10;;;11.00;99.90;;;;;;5042354;28;21075;-84
2022/04/06 08:46:12;;;;;;;6.27;1.70;;;11.10;99.90;;;;;;5042341;28;20241;-85
2022/04/06 08:48:38;;;;;;;3.50;1.10;;;11.60;99.90;;;;;;5043871;28;20229;-86
2022/04/06 08:51:09;;;;;;;4.50;1.80;;;12.00;99.90;;;;;;5043250;28;20704;-85
2022/04/06 08:53:45;;;;;;;1.33;0.77;;;12.20;99.90;;;;;;5031961;28;20268;-84
2022/04/06 08:56:12;;;;;;;5.87;1.50;;;12.30;99.90;;;;;;5042645;28;20277;-85
2022/04/06 08:58:39;;;;;;;4.33;1.43;;;12.60;99.90;;;;;;5042011;28;20225;-85
2022/04/06 09:01:05;;;;;;;2.17;1.23;;;12.40;99.90;;;;;;5042820;28;20523;-85
2022/04/06 09:03:31;;;;;;;1.47;0.83;;;12.50;99.90;;;;;;5024366;28;20368;-85
2022/04/06 09:06:06;;;;;;;4.43;1.30;;;12.20;99.90;;;;;;5042065;28;20894;-85
2022/04/06 09:08:39;;;;;;;3.40;1.37;;;12.10;99.90;;;;;;5042056;28;20194;-85
2022/04/06 09:11:10;;;;;;;3.27;0.87;;;12.10;99.90;;;;;;5058499;28;20228;-85
2022/04/06 09:13:36;;;;;;;3.30;1.70;;;12.30;99.90;;;;;;5057916;28;20233;-85
2022/04/06 09:16:04;;;;;;;4.27;1.30;;;12.10;99.90;;;;;;5025338;28;20221;-84
2022/04/06 09:18:38;;;;;;;0.80;0.70;;;12.00;99.90;;;;;;5042408;28;20221;-85
2022/04/06 09:21:04;;;;;;;3.63;1.23;;;11.90;99.90;;;;;;5042576;28;21033;-86
2022/04/06 09:23:32;;;;;;;4.33;1.23;;;12.00;99.90;;;;;;5040801;28;20206;-85
2022/04/06 09:26:09;;;;;;;1.17;1.00;;;12.00;99.90;;;;;;5042296;28;20212;-85
2022/04/06 09:28:41;;;;;;;1.90;1.67;;;11.80;99.90;;;;;;5043246;28;20217;-87
2022/04/06 09:31:08;;;;;;;1.70;1.23;;;11.80;99.90;;;;;;5060155;28;20249;-87
2022/04/06 09:33:41;;;;;;;0.93;0.93;;;11.80;99.90;;;;;;5040788;28;20562;-86
2022/04/06 09:36:20;;;;;;;2.43;0.97;;;11.70;99.90;;;;;;5043615;28;20588;-91
2022/04/06 09:38:50;;;;;;;0.70;0.70;;;11.60;99.90;;;;;;5025502;28;20210;-90
2022/04/06 09:41:18;;;;;;;3.17;1.00;;;11.50;99.90;;;;;;5025687;28;20189;-90
2022/04/06 09:43:45;;;;;;;3.40;2.50;;;11.50;99.90;;;;;;5042359;28;20308;-90
2022/04/06 09:49:14;;;;;;;2.57;1.27;;;11.70;99.90;;;;;;5043400;28;20707;-86
2022/04/06 09:51:44;;;;;;;1.80;1.50;;;11.80;99.90;;;;;;5042739;28;20236;-88
2022/04/06 09:54:14;;;;;;;4.67;1.57;;;11.90;99.90;;;;;;5041548;28;20705;-88
2022/04/06 09:56:41;;;;;;;3.23;1.70;;;12.10;99.90;;;;;;5026404;28;21083;-87
2022/04/06 09:59:08;;;;;;;3.20;1.53;;;12.10;99.90;;;;;;5042419;28;20201;-84
2022/04/06 10:01:37;;;;;;;1.93;1.77;;;12.10;99.90;;;;;;5060296;28;20214;-88
2022/04/06 10:04:05;;;;;;;5.40;1.87;;;12.10;99.90;;;;;;5062231;28;20225;-86
2022/04/06 10:06:36;;;;;;;4.23;1.67;;;12.40;99.90;;;;;;5043695;28;20229;-85
2022/04/06 10:09:10;;;;;;;6.10;1.40;;;12.70;99.90;;;;;;5062389;28;20217;-88
2022/04/06 10:11:38;;;;;;;1.23;1.07;;;12.70;99.90;;;;;;5043904;28;20236;-84
2022/04/06 10:14:05;;;;;;;10.83;2.50;;;12.70;99.90;;;;;;5077596;28;20196;-82
2022/04/06 10:16:32;;;;;;;1.70;1.60;;;13.20;99.90;;;;;;5044575;28;20221;-86
2022/04/06 10:18:58;;;;;;;7.30;1.70;;;13.00;99.90;;;;;;5069690;28;20225;-84
2022/04/06 10:21:59;;;;;;;5.20;2.00;;;12.80;99.90;;;;;;5060888;28;20286;-83
2022/04/06 10:24:42;;;;;;;3.23;0.90;;;13.20;99.90;;;;;;5043877;28;20236;-84
2022/04/06 10:27:29;;;;;;;2.50;0.93;;;13.40;99.90;;;;;;5062792;28;20754;-84
2022/04/06 10:30:16;;;;;;;4.97;2.13;;;13.50;99.90;;;;;;5060183;28;20213;-85
2022/04/06 10:32:44;;;;;;;4.63;1.97;;;13.10;99.90;;;;;;5077194;28;20259;-85
2022/04/06 10:35:34;;;;;;;4.83;1.57;;;13.00;99.90;;;;;;5078205;28;20469;-85
2022/04/06 10:37:59;;;;;;;2.53;1.50;;;12.70;99.90;;;;;;5050453;28;20255;-84
2022/04/06 10:40:48;;;;;;;5.90;1.27;;;12.40;99.90;;;;;;5061525;28;20221;-84
2022/04/06 10:43:36;;;;;;;8.10;1.87;;;12.60;99.90;;;;;;5044742;28;20217;-86
2022/04/06 10:46:07;;;;;;;1.97;1.10;;;12.80;99.90;;;;;;5043642;28;20237;-87
2022/04/06 10:48:32;;;;;;;10.30;0.90;;;13.10;99.90;;;;;;5061756;28;20296;-85
2022/04/06 10:51:29;;;;;;;3.90;1.13;;;13.20;99.90;;;;;;5059831;28;20639;-85
2022/04/06 10:53:55;;;;;;;9.40;2.03;;;12.90;99.90;;;;;;5044139;28;20553;-85
2022/04/06 10:56:22;;;;;;;1.23;0.67;;;12.90;99.90;;;;;;5061172;28;20795;-84
2022/04/06 10:58:57;;;;;;;2.77;1.17;;;12.90;99.90;;;;;;5061106;28;20284;-86
2022/04/06 11:01:31;;;;;;;4.97;2.20;;;12.90;99.90;;;;;;5059219;28;20224;-85
2022/04/06 11:03:59;;;;;;;4.00;1.17;;;13.10;99.90;;;;;;5077305;28;20374;-86
2022/04/06 11:06:49;;;;;;;1.63;1.17;;;13.00;99.90;;;;;;5043737;28;20225;-86
2022/04/06 11:12:18;;;;;;;2.57;1.90;;;13.20;99.90;;;;;;5061432;28;20327;-86
2022/04/06 11:14:48;;;;;;;6.80;1.50;;;13.30;99.90;;;;;;5077478;28;20372;-85
2022/04/06 11:17:32;;;;;;;5.43;1.70;;;13.30;99.90;;;;;;5077780;28;20204;-85
2022/04/06 11:19:59;;;;;;;3.97;1.60;;;13.30;99.90;;;;;;5061858;28;20221;-85
2022/04/06 11:22:26;;;;;;;4.03;0.83;;;13.50;99.90;;;;;;5042759;28;20224;-84
2022/04/06 11:24:54;;;;;;;2.53;2.17;;;13.80;99.90;;;;;;5043677;28;20221;-86
2022/04/06 11:27:32;;;;;;;3.57;1.40;;;13.80;99.90;;;;;;5046103;28;20228;-87
2022/04/06 11:30:12;;;;;;;3.03;1.27;;;14.00;99.90;;;;;;5046916;28;20220;-86
2022/04/06 11:32:39;;;;;;;5.40;1.87;;;13.90;99.90;;;;;;5056546;28;20204;-86
2022/04/06 11:35:08;;;;;;;3.00;1.13;;;13.60;99.90;;;;;;5047178;28;20196;-85
2022/04/06 11:37:46;;;;;;;15.00;3.53;;;13.40;99.90;;;;;;5047181;28;20560;-85
2022/04/06 11:40:14;;;;;;;2.93;1.10;;;13.50;99.90;;;;;;5063849;28;20684;-87
2022/04/06 11:42:41;;;;;;;6.43;1.07;;;13.60;99.90;;;;;;5057887;28;20304;-86
2022/04/06 11:45:09;;;;;;;4.53;1.13;;;13.40;99.90;;;;;;5066121;28;20228;-89
2022/04/06 11:47:38;;;;;;;6.80;3.13;;;13.20;99.90;;;;;;5064028;28;20268;-87
2022/04/06 11:50:09;;;;;;;1.60;1.40;;;13.20;99.90;;;;;;5082611;28;20185;-88
2022/04/06 11:52:40;;;;;;;1.53;1.30;;;13.00;99.90;;;;;;5047968;28;20213;-88
2022/04/06 11:55:07;;;;;;;7.07;1.43;;;13.00;99.90;;;;;;5081906;28;20274;-90
2022/04/06 11:57:42;;;;;;;2.43;1.03;;;12.90;99.90;;;;;;5049243;28;20232;-87
2022/04/06 12:00:11;;;;;;;5.70;1.97;;;13.00;99.90;;;;;;5060653;28;20294;-88
2022/04/06 12:03:08;;;;;;;1.83;1.33;;;13.00;99.90;;;;;;5048918;28;20316;-88
2022/04/06 12:05:46;;;;;;;3.33;1.90;;;12.90;99.90;;;;;;5040009;28;20224;-87
2022/04/06 12:08:14;;;;;;;4.00;1.87;;;12.80;99.90;;;;;;5048285;28;20922;-91
2022/04/06 12:10:56;;;;;;;7.90;1.40;;;12.70;99.90;;;;;;5080438;28;20214;-88
2022/04/06 12:13:22;;;;;;;6.20;1.27;;;12.70;99.90;;;;;;5047438;28;20712;-87
2022/04/06 12:15:49;;;;;;;11.80;2.00;;;12.80;99.90;;;;;;5065247;28;20217;-87
2022/04/06 12:18:19;;;;;;;4.37;1.40;;;12.90;99.90;;;;;;5063768;28;20239;-85
2022/04/06 12:20:48;;;;;;;8.37;1.43;;;13.00;99.90;;;;;;5046360;28;20261;-83
2022/04/06 12:23:16;;;;;;;4.60;2.23;;;12.90;99.90;;;;;;5032871;28;20189;-85
2022/04/06 12:25:42;;;;;;;7.37;1.90;;;13.00;99.90;;;;;;5079259;28;20808;-85
2022/04/06 12:28:19;;;;;;;7.17;1.73;;;12.90;99.90;;;;;;5079582;28;20233;-86
2022/04/06 12:30:51;;;;;;;12.47;2.50;;;12.80;99.90;;;;;;5062963;28;20217;-84
2022/04/06 12:33:33;;;;;;;9.20;2.40;;;12.70;99.90;;;;;;5045201;28;20229;-85
2022/04/06 12:36:23;;;;;;;5.13;2.50;;;12.70;99.90;;;;;;5063659;28;20576;-86
2022/04/06 12:39:18;;;;;;;4.13;2.10;;;12.70;99.90;;;;;;5063824;28;20308;-87
2022/04/06 12:41:52;;;;;;;7.70;3.87;;;12.60;99.90;;;;;;5064392;28;20221;-89
2022/04/06 12:44:19;;;;;;;12.60;1.53;;;12.80;99.90;;;;;;5046814;28;20189;-85
2022/04/06 12:46:47;;;;;;;2.37;0.97;;;12.70;99.90;;;;;;5046948;28;20229;-89
2022/04/06 12:49:22;;;;;;;2.13;1.33;;;12.70;99.90;;;;;;5048864;28;20416;-89
2022/04/06 12:52:00;;;;;;;2.87;1.50;;;12.70;99.90;;;;;;5041667;28;20225;-89
2022/04/06 12:54:28;;;;;;;3.10;1.80;;;12.80;99.90;;;;;;5048929;28;20228;-88
2022/04/06 12:57:10;;;;;;;9.93;5.03;;;12.80;99.90;;;;;;5083454;28;20251;-87
2022/04/06 12:59:44;;;;;;;1.70;1.10;;;13.00;99.90;;;;;;5045986;28;20238;-87
2022/04/06 13:02:24;;;;;;;4.83;2.13;;;12.90;99.90;;;;;;5046432;28;20228;-88
2022/04/06 13:04:52;;;;;;;6.63;1.40;;;12.90;99.90;;;;;;5064286;28;20312;-87
2022/04/06 13:07:19;;;;;;;3.80;1.50;;;12.90;99.90;;;;;;5066920;28;20237;-88
2022/04/06 13:09:55;;;;;;;5.73;1.77;;;13.00;99.90;;;;;;5065824;28;20282;-88